createdAt,value
2022-10-10T00:01:46.469Z,14.20
2022-10-10T00:04:15.256Z,14.20
2022-10-10T00:06:43.933Z,14.20
2022-10-10T00:09:12.634Z,14.30
2022-10-10T00:11:41.590Z,14.30
2022-10-10T00:14:11.719Z,14.30
2022-10-10T00:16:40.484Z,14.30
2022-10-10T00:19:09.234Z,14.40
2022-10-10T00:21:38.115Z,14.40
2022-10-10T00:24:07.084Z,14.40
2022-10-10T00:26:36.307Z,14.40
2022-10-10T00:29:05.095Z,14.40
2022-10-10T00:31:35.170Z,14.40
2022-10-10T00:34:03.937Z,14.40
2022-10-10T00:36:32.600Z,14.50
2022-10-10T00:39:01.526Z,14.50
2022-10-10T00:41:30.634Z,14.50
2022-10-10T00:44:08.147Z,14.50
2022-10-10T00:46:38.476Z,14.50
2022-10-10T00:49:12.076Z,14.50
2022-10-10T00:51:41.863Z,14.50
2022-10-10T00:54:13.855Z,14.50
2022-10-10T00:56:46.429Z,14.50
2022-10-10T00:59:16.249Z,14.50
2022-10-10T01:01:46.673Z,14.50
2022-10-10T01:04:31.100Z,14.50
2022-10-10T01:07:01.150Z,14.50
2022-10-10T01:09:31.127Z,14.50
2022-10-10T01:12:09.330Z,14.40
2022-10-10T01:14:47.751Z,14.40
2022-10-10T01:17:26.717Z,14.40
2022-10-10T01:20:36.119Z,14.40
2022-10-10T01:23:23.515Z,14.40
2022-10-10T01:26:02.203Z,14.40
2022-10-10T01:28:40.203Z,14.40
2022-10-10T01:31:13.864Z,14.40
2022-10-10T01:33:54.374Z,14.40
2022-10-10T01:36:30.859Z,14.40
2022-10-10T01:39:06.928Z,14.40
2022-10-10T01:41:40.036Z,14.40
2022-10-10T01:44:10.172Z,14.40
2022-10-10T01:46:39.504Z,14.40
2022-10-10T01:49:08.641Z,14.30
2022-10-10T01:51:51.191Z,14.40
2022-10-10T01:54:34.545Z,14.40
2022-10-10T01:57:16.854Z,14.30
2022-10-10T02:00:00.448Z,14.30
2022-10-10T02:02:38.854Z,14.40
2022-10-10T02:05:15.967Z,14.30
2022-10-10T02:07:50.544Z,14.40
2022-10-10T02:10:24.089Z,14.40
2022-10-10T02:12:53.819Z,14.30
2022-10-10T02:15:27.907Z,14.30
2022-10-10T02:17:58.371Z,14.30
2022-10-10T02:20:29.519Z,14.30
2022-10-10T02:22:58.483Z,14.30
2022-10-10T02:25:30.302Z,14.30
2022-10-10T02:28:07.360Z,14.30
2022-10-10T02:30:41.899Z,14.30
2022-10-10T02:33:12.686Z,14.30
2022-10-10T02:35:44.198Z,14.30
2022-10-10T02:38:16.309Z,14.30
2022-10-10T02:40:47.042Z,14.30
2022-10-10T02:43:17.506Z,14.30
2022-10-10T02:45:47.847Z,14.20
2022-10-10T02:48:16.504Z,14.30
2022-10-10T02:50:45.770Z,14.20
2022-10-10T02:53:14.476Z,14.20
2022-10-10T02:55:43.131Z,14.20
2022-10-10T02:58:11.833Z,14.20
2022-10-10T03:00:42.120Z,14.20
2022-10-10T03:03:12.114Z,14.20
2022-10-10T03:05:41.809Z,14.20
2022-10-10T03:08:11.930Z,14.20
2022-10-10T03:10:41.050Z,14.20
2022-10-10T03:13:09.716Z,14.20
2022-10-10T03:15:38.627Z,14.10
2022-10-10T03:18:07.406Z,14.10
2022-10-10T03:20:37.592Z,14.10
2022-10-10T03:23:06.631Z,14.10
2022-10-10T03:25:35.814Z,14.10
2022-10-10T03:28:04.951Z,14.00
2022-10-10T03:30:33.945Z,14.00
2022-10-10T03:33:02.745Z,14.00
2022-10-10T03:35:31.956Z,14.00
2022-10-10T03:38:02.193Z,14.00
2022-10-10T03:40:31.226Z,14.00
2022-10-10T03:43:00.218Z,14.00
2022-10-10T03:45:29.115Z,14.00
2022-10-10T03:47:58.174Z,14.00
2022-10-10T03:50:27.262Z,14.00
2022-10-10T03:52:56.639Z,14.00
2022-10-10T03:55:26.897Z,14.00
2022-10-10T03:57:56.012Z,13.90
2022-10-10T04:00:25.310Z,13.90
2022-10-10T04:02:54.343Z,13.90
2022-10-10T04:05:23.456Z,13.90
2022-10-10T04:07:52.278Z,13.90
2022-10-10T04:10:21.293Z,13.80
2022-10-10T04:12:52.077Z,13.80
2022-10-10T04:15:21.834Z,13.80
2022-10-10T04:17:50.662Z,13.70
2022-10-10T04:20:19.974Z,13.70
2022-10-10T04:22:49.362Z,13.70
2022-10-10T04:25:18.978Z,13.70
2022-10-10T04:27:48.663Z,13.70
2022-10-10T04:30:19.362Z,13.70
2022-10-10T04:32:48.870Z,13.60
2022-10-10T04:35:18.436Z,13.60
2022-10-10T04:37:48.039Z,13.60
2022-10-10T04:40:16.931Z,13.60
2022-10-10T04:42:45.834Z,13.50
2022-10-10T04:45:15.089Z,13.50
2022-10-10T04:47:45.335Z,13.50
2022-10-10T04:50:14.403Z,13.40
2022-10-10T04:52:43.571Z,13.40
2022-10-10T04:55:12.927Z,13.40
2022-10-10T04:57:41.793Z,13.40
2022-10-10T05:00:12.264Z,13.40
2022-10-10T05:02:41.160Z,13.40
2022-10-10T05:05:11.699Z,13.30
2022-10-10T05:07:40.741Z,13.30
2022-10-10T05:10:10.858Z,13.30
2022-10-10T05:12:39.799Z,13.30
2022-10-10T05:15:09.405Z,13.30
2022-10-10T05:17:38.564Z,13.30
2022-10-10T05:20:08.146Z,13.30
2022-10-10T05:22:38.467Z,13.20
2022-10-10T05:25:08.663Z,13.30
2022-10-10T05:27:38.154Z,13.20
2022-10-10T05:30:08.070Z,13.20
2022-10-10T05:32:37.076Z,13.20
2022-10-10T05:35:07.410Z,13.20
2022-10-10T05:37:37.872Z,13.20
2022-10-10T05:40:08.084Z,13.20
2022-10-10T05:42:37.110Z,13.20
2022-10-10T05:45:07.025Z,13.20
2022-10-10T05:47:35.993Z,13.20
2022-10-10T05:50:05.969Z,13.20
2022-10-10T05:52:36.322Z,13.20
2022-10-10T05:55:07.511Z,13.20
2022-10-10T05:57:36.455Z,13.20
2022-10-10T06:00:06.218Z,13.20
2022-10-10T06:02:36.408Z,13.20
2022-10-10T06:05:06.871Z,13.20
2022-10-10T06:07:59.813Z,13.20
2022-10-10T06:10:26.835Z,13.10
2022-10-10T06:12:55.812Z,13.10
2022-10-10T06:15:24.945Z,13.10
2022-10-10T06:17:53.906Z,13.10
2022-10-10T06:20:23.154Z,13.10
2022-10-10T06:22:52.432Z,13.10
2022-10-10T06:25:39.056Z,13.10
2022-10-10T06:28:10.818Z,13.10
2022-10-10T06:30:43.878Z,13.10
2022-10-10T06:33:15.026Z,13.10
2022-10-10T06:35:45.214Z,13.10
2022-10-10T06:38:15.548Z,13.10
2022-10-10T06:40:44.782Z,13.10
2022-10-10T06:43:17.218Z,13.20
2022-10-10T06:45:48.444Z,13.20
2022-10-10T06:48:17.611Z,13.20
2022-10-10T06:50:57.394Z,13.20
2022-10-10T06:53:26.943Z,13.20
2022-10-10T06:55:56.775Z,13.20
2022-10-10T06:58:27.879Z,13.30
2022-10-10T07:00:59.168Z,13.30
2022-10-10T07:03:29.316Z,13.30
2022-10-10T07:06:00.286Z,13.30
2022-10-10T07:08:30.207Z,13.40
2022-10-10T07:10:59.142Z,13.40
2022-10-10T07:13:30.271Z,13.40
2022-10-10T07:15:59.263Z,13.50
2022-10-10T07:18:28.784Z,13.50
2022-10-10T07:20:58.479Z,13.50
2022-10-10T07:23:28.803Z,13.60
2022-10-10T07:26:03.024Z,13.70
2022-10-10T07:28:34.062Z,13.80
2022-10-10T07:31:05.057Z,13.90
2022-10-10T07:33:36.203Z,13.90
2022-10-10T07:36:06.064Z,14.20
2022-10-10T07:38:35.494Z,14.60
2022-10-10T07:41:06.760Z,15.10
2022-10-10T07:43:37.724Z,15.50
2022-10-10T07:46:11.311Z,15.80
2022-10-10T07:48:41.305Z,16.00
2022-10-10T07:51:11.079Z,16.20
2022-10-10T07:53:40.922Z,16.20
2022-10-10T07:56:11.106Z,16.30
2022-10-10T07:58:41.575Z,16.40
2022-10-10T08:01:11.915Z,16.70
2022-10-10T08:03:41.393Z,17.00
2022-10-10T08:06:12.664Z,17.40
2022-10-10T08:08:50.342Z,17.70
2022-10-10T08:11:21.957Z,17.90
2022-10-10T08:13:52.915Z,18.20
2022-10-10T08:16:22.338Z,18.50
2022-10-10T08:18:51.238Z,18.60
2022-10-10T08:21:20.806Z,18.80
2022-10-10T08:23:49.873Z,18.90
2022-10-10T08:26:19.998Z,19.00
2022-10-10T08:28:49.468Z,19.20
2022-10-10T08:31:21.494Z,19.30
2022-10-10T08:33:52.162Z,19.40
2022-10-10T08:36:23.078Z,19.20
2022-10-10T08:38:56.247Z,19.10
2022-10-10T08:41:33.309Z,18.90
2022-10-10T08:44:06.577Z,18.60
2022-10-10T08:46:41.912Z,18.40
2022-10-10T08:49:20.341Z,18.20
2022-10-10T08:51:56.928Z,18.00
2022-10-10T08:54:27.185Z,17.90
2022-10-10T08:57:01.225Z,17.70
2022-10-10T08:59:35.125Z,17.60
2022-10-10T09:02:43.952Z,17.50
2022-10-10T09:05:34.872Z,17.50
2022-10-10T09:08:26.294Z,17.40
2022-10-10T09:10:58.555Z,17.30
2022-10-10T09:13:34.596Z,17.30
2022-10-10T09:16:07.523Z,17.30
2022-10-10T09:18:49.538Z,17.30
2022-10-10T09:21:21.495Z,17.30
2022-10-10T09:23:55.733Z,17.20
2022-10-10T09:26:27.741Z,17.20
2022-10-10T09:29:02.978Z,17.20
2022-10-10T09:31:36.897Z,17.30
2022-10-10T09:34:14.692Z,17.30
2022-10-10T09:36:45.677Z,17.40
2022-10-10T09:39:22.178Z,17.40
2022-10-10T09:41:58.733Z,17.40
2022-10-10T09:44:28.402Z,17.50
2022-10-10T09:46:59.800Z,17.60
2022-10-10T09:49:31.251Z,17.70
2022-10-10T09:52:04.246Z,17.90
2022-10-10T09:54:33.382Z,18.00
2022-10-10T09:57:04.033Z,18.30
2022-10-10T09:59:41.716Z,18.50
2022-10-10T10:02:15.694Z,18.80
2022-10-10T10:04:46.507Z,19.00
2022-10-10T10:07:21.782Z,19.10
2022-10-10T10:09:52.060Z,19.20
2022-10-10T10:12:24.395Z,19.30
2022-10-10T10:15:00.233Z,19.40
2022-10-10T10:17:29.650Z,19.50
2022-10-10T10:19:59.882Z,19.60
2022-10-10T10:22:34.801Z,19.70
2022-10-10T10:25:34.889Z,19.80
2022-10-10T10:28:21.123Z,19.90
2022-10-10T10:30:53.226Z,20.00
2022-10-10T10:33:33.993Z,20.10
2022-10-10T10:36:13.697Z,20.10
2022-10-10T10:38:45.747Z,20.10
2022-10-10T10:41:23.617Z,20.10
2022-10-10T10:44:24.931Z,20.20
2022-10-10T10:47:09.383Z,20.30
2022-10-10T10:49:49.723Z,20.50
2022-10-10T10:52:40.343Z,20.80
2022-10-10T10:55:30.698Z,21.20
2022-10-10T10:58:58.631Z,21.70
2022-10-10T11:01:38.785Z,22.20
2022-10-10T11:05:20.077Z,22.80
2022-10-10T11:07:19.341Z,23.30
2022-10-10T11:09:56.614Z,23.80
2022-10-10T11:12:42.277Z,24.10
2022-10-10T11:15:18.050Z,24.20
2022-10-10T11:17:54.101Z,24.20
2022-10-10T11:20:28.791Z,24.20
2022-10-10T11:23:08.639Z,24.20
2022-10-10T11:25:44.115Z,24.00
2022-10-10T11:28:17.532Z,23.80
2022-10-10T11:30:52.115Z,23.60
2022-10-10T11:33:25.185Z,23.50
2022-10-10T11:35:59.431Z,23.50
2022-10-10T11:38:34.410Z,23.60
2022-10-10T11:41:09.672Z,23.80
2022-10-10T11:43:46.251Z,24.10
2022-10-10T11:46:24.318Z,24.20
2022-10-10T11:49:02.158Z,24.30
2022-10-10T11:51:40.316Z,24.40
2022-10-10T11:54:21.412Z,24.50
2022-10-10T11:56:53.072Z,24.60
2022-10-10T11:59:26.840Z,24.50
2022-10-10T12:04:38.338Z,24.40
2022-10-10T12:07:12.513Z,24.20
2022-10-10T12:09:44.232Z,24.10
2022-10-10T12:12:23.031Z,23.90
2022-10-10T12:14:55.777Z,23.70
2022-10-10T12:17:29.734Z,23.40
2022-10-10T12:20:10.691Z,23.20
2022-10-10T12:22:39.733Z,23.00
2022-10-10T12:25:23.848Z,22.80
2022-10-10T12:28:26.024Z,22.60
2022-10-10T12:31:29.907Z,22.40
2022-10-10T12:34:11.386Z,22.20
2022-10-10T12:36:58.735Z,22.10
2022-10-10T12:39:38.962Z,22.00
2022-10-10T12:42:31.482Z,21.90
2022-10-10T12:45:01.904Z,21.80
2022-10-10T12:48:04.003Z,21.80
2022-10-10T12:50:36.298Z,21.80
2022-10-10T12:53:08.088Z,21.90
2022-10-10T12:55:44.594Z,21.90
2022-10-10T12:58:27.027Z,21.80
2022-10-10T13:01:00.781Z,21.80
2022-10-10T13:03:33.561Z,21.70
2022-10-10T13:06:07.483Z,21.60
2022-10-10T13:08:38.412Z,21.60
2022-10-10T13:11:10.746Z,21.50
2022-10-10T13:13:40.781Z,21.40
2022-10-10T13:16:15.503Z,21.30
2022-10-10T13:18:52.282Z,21.30
2022-10-10T13:21:23.533Z,21.20
2022-10-10T13:26:47.893Z,21.10
2022-10-10T13:29:24.507Z,21.20
2022-10-10T13:31:59.368Z,21.20
2022-10-10T13:34:31.445Z,21.20
2022-10-10T13:37:03.316Z,21.20
2022-10-10T13:39:35.589Z,21.20
2022-10-10T13:42:05.879Z,21.20
2022-10-10T13:44:49.371Z,21.20
2022-10-10T13:47:46.938Z,21.20
2022-10-10T13:50:27.756Z,21.20
2022-10-10T13:53:25.058Z,21.20
2022-10-10T13:56:02.436Z,21.20
2022-10-10T13:58:33.700Z,21.30
2022-10-10T14:01:04.952Z,21.20
2022-10-10T14:03:36.323Z,21.30
2022-10-10T14:06:05.595Z,21.30
2022-10-10T14:08:35.302Z,21.30
2022-10-10T14:11:07.523Z,21.30
2022-10-10T14:13:39.377Z,21.30
2022-10-10T14:16:13.236Z,21.30
2022-10-10T14:18:43.516Z,21.30
2022-10-10T14:21:12.519Z,21.30
2022-10-10T14:23:41.701Z,21.30
2022-10-10T14:26:16.629Z,21.20
2022-10-10T14:28:45.653Z,21.20
2022-10-10T14:31:14.936Z,21.10
2022-10-10T14:33:45.382Z,21.10
2022-10-10T14:36:15.139Z,21.10
2022-10-10T14:38:44.418Z,21.00
2022-10-10T14:41:14.056Z,21.00
2022-10-10T14:43:45.917Z,21.00
2022-10-10T14:46:19.460Z,21.00
2022-10-10T14:48:49.964Z,21.00
2022-10-10T14:51:34.460Z,21.00
2022-10-10T14:54:11.898Z,21.00
2022-10-10T14:57:07.472Z,21.10
2022-10-10T14:59:48.396Z,21.10
2022-10-10T15:02:20.523Z,21.10
2022-10-10T15:04:51.372Z,21.10
2022-10-10T15:07:21.202Z,21.00
2022-10-10T15:10:26.134Z,21.00
2022-10-10T15:12:42.857Z,21.00
2022-10-10T15:15:14.099Z,21.00
2022-10-10T15:17:43.382Z,20.90
2022-10-10T15:20:14.748Z,20.90
2022-10-10T15:22:45.287Z,20.80
2022-10-10T15:25:14.199Z,20.80
2022-10-10T15:27:42.995Z,20.80
2022-10-10T15:30:14.094Z,20.80
2022-10-10T15:32:43.359Z,20.70
2022-10-10T15:35:17.704Z,20.70
2022-10-10T15:37:47.910Z,20.70
2022-10-10T15:40:20.275Z,20.60
2022-10-10T15:42:51.215Z,20.60
2022-10-10T15:45:43.943Z,20.60
2022-10-10T15:48:09.813Z,20.60
2022-10-10T15:50:44.200Z,20.50
2022-10-10T15:53:13.478Z,20.50
2022-10-10T15:55:43.312Z,20.50
2022-10-10T15:58:12.931Z,20.40
2022-10-10T16:00:44.546Z,20.40
2022-10-10T16:03:13.685Z,20.30
2022-10-10T16:05:44.480Z,20.30
2022-10-10T16:08:13.587Z,20.30
2022-10-10T16:10:43.930Z,20.20
2022-10-10T16:13:13.049Z,20.20
2022-10-10T16:15:42.717Z,20.20
2022-10-10T16:18:11.702Z,20.10
2022-10-10T16:20:40.692Z,20.10
2022-10-10T16:23:10.912Z,20.00
2022-10-10T16:25:40.152Z,20.00
2022-10-10T16:28:09.158Z,20.00
2022-10-10T16:30:38.474Z,19.90
2022-10-10T16:33:07.597Z,19.90
2022-10-10T16:35:38.220Z,19.90
2022-10-10T16:38:07.043Z,19.80
2022-10-10T16:40:38.005Z,19.70
2022-10-10T16:43:07.257Z,19.70
2022-10-10T16:45:41.882Z,19.70
2022-10-10T16:48:11.047Z,19.60
2022-10-10T16:50:40.970Z,19.60
2022-10-10T16:53:12.164Z,19.50
2022-10-10T16:55:43.195Z,19.50
2022-10-10T16:58:12.232Z,19.40
2022-10-10T17:00:43.372Z,19.40
2022-10-10T17:03:12.248Z,19.30
2022-10-10T17:05:41.974Z,19.30
2022-10-10T17:08:10.778Z,19.20
2022-10-10T17:10:39.850Z,19.20
2022-10-10T17:13:10.350Z,19.10
2022-10-10T17:15:42.999Z,19.10
2022-10-10T17:18:12.233Z,19.00
2022-10-10T17:20:42.209Z,18.90
2022-10-10T17:23:11.283Z,18.90
2022-10-10T17:25:42.250Z,18.80
2022-10-10T17:28:14.051Z,18.70
2022-10-10T17:30:44.807Z,18.70
2022-10-10T17:33:15.902Z,18.60
2022-10-10T17:35:47.526Z,18.60
2022-10-10T17:38:38.490Z,18.50
2022-10-10T17:41:07.764Z,18.50
2022-10-10T17:43:38.530Z,18.50
2022-10-10T17:46:32.733Z,18.40
2022-10-10T17:48:58.228Z,18.40
2022-10-10T17:51:27.856Z,18.40
2022-10-10T17:53:59.367Z,18.30
2022-10-10T17:56:28.278Z,18.30
2022-10-10T17:58:59.627Z,18.20
2022-10-10T18:01:30.373Z,18.20
2022-10-10T18:04:00.066Z,18.10
2022-10-10T18:06:29.486Z,18.10
2022-10-10T18:08:58.843Z,18.00
2022-10-10T18:11:29.290Z,18.00
2022-10-10T18:14:01.189Z,18.00
2022-10-10T18:16:33.644Z,17.90
2022-10-10T18:19:03.571Z,17.90
2022-10-10T18:21:32.438Z,17.90
2022-10-10T18:24:01.578Z,17.80
2022-10-10T18:26:31.912Z,17.80
2022-10-10T18:29:02.278Z,17.80
2022-10-10T18:31:33.599Z,17.80
2022-10-10T18:34:04.102Z,17.80
2022-10-10T18:36:34.985Z,17.70
2022-10-10T18:39:06.343Z,17.70
2022-10-10T18:41:36.216Z,17.70
2022-10-10T18:44:08.833Z,17.70
2022-10-10T18:46:37.622Z,17.70
2022-10-10T18:49:08.926Z,17.60
2022-10-10T18:51:39.721Z,17.60
2022-10-10T18:54:09.657Z,17.50
2022-10-10T18:56:40.438Z,17.50
2022-10-10T18:59:15.558Z,17.50
2022-10-10T19:01:46.345Z,17.50
2022-10-10T19:04:19.922Z,17.40
2022-10-10T19:06:53.206Z,17.40
2022-10-10T19:09:26.689Z,17.40
2022-10-10T19:11:55.834Z,17.30
2022-10-10T19:14:26.292Z,17.30
2022-10-10T19:16:55.046Z,17.30
2022-10-10T19:19:24.363Z,17.20
2022-10-10T19:21:53.546Z,17.20
2022-10-10T19:24:22.265Z,17.20
2022-10-10T19:26:53.245Z,17.20
2022-10-10T19:29:22.436Z,17.20
2022-10-10T19:31:52.667Z,17.10
2022-10-10T19:34:21.354Z,17.10
2022-10-10T19:36:50.298Z,17.00
2022-10-10T19:39:19.286Z,17.00
2022-10-10T19:41:48.374Z,17.00
2022-10-10T19:44:17.102Z,16.90
2022-10-10T19:46:45.960Z,16.90
2022-10-10T19:49:16.379Z,16.90
2022-10-10T19:51:45.093Z,16.90
2022-10-10T19:54:13.826Z,16.80
2022-10-10T19:56:42.542Z,16.80
2022-10-10T19:59:11.311Z,16.80
2022-10-10T20:01:40.142Z,16.80
2022-10-10T20:04:08.985Z,16.80
2022-10-10T20:06:41.124Z,16.80
2022-10-10T20:09:11.136Z,16.70
2022-10-10T20:11:40.388Z,16.70
2022-10-10T20:14:09.759Z,16.70
2022-10-10T20:16:38.939Z,16.70
2022-10-10T20:19:08.363Z,16.70
2022-10-10T20:21:37.155Z,16.70
2022-10-10T20:24:14.319Z,16.70
2022-10-10T20:26:42.996Z,16.70
2022-10-10T20:29:11.823Z,16.70
2022-10-10T20:31:40.792Z,16.70
2022-10-10T20:34:10.719Z,16.70
2022-10-10T20:36:40.017Z,16.70
2022-10-10T20:39:13.542Z,16.60
2022-10-10T20:41:43.006Z,16.60
2022-10-10T20:44:14.033Z,16.60
2022-10-10T20:46:45.021Z,16.60
2022-10-10T20:49:16.762Z,16.50
2022-10-10T20:51:48.617Z,16.50
2022-10-10T20:54:20.337Z,16.50
2022-10-10T20:56:49.630Z,16.40
2022-10-10T20:59:19.328Z,16.40
2022-10-10T21:01:48.475Z,16.40
2022-10-10T21:04:17.676Z,16.30
2022-10-10T21:06:46.692Z,16.30
2022-10-10T21:09:16.623Z,16.30
2022-10-10T21:11:50.621Z,16.20
2022-10-10T21:14:19.975Z,16.30
2022-10-10T21:16:50.491Z,16.20
2022-10-10T21:19:19.554Z,16.20
2022-10-10T21:21:48.399Z,16.20
2022-10-10T21:24:17.197Z,16.20
2022-10-10T21:26:49.040Z,16.20
2022-10-10T21:29:18.169Z,16.20
2022-10-10T21:31:46.926Z,16.20
2022-10-10T21:34:18.583Z,16.20
2022-10-10T21:36:47.520Z,16.20
2022-10-10T21:39:16.561Z,16.20
2022-10-10T21:41:46.784Z,16.20
2022-10-10T21:44:16.664Z,16.10
2022-10-10T21:46:45.490Z,16.10
2022-10-10T21:49:14.499Z,16.10
2022-10-10T21:51:46.260Z,16.10
2022-10-10T21:54:15.799Z,16.00
2022-10-10T21:56:44.870Z,16.00
2022-10-10T21:59:15.409Z,16.00
2022-10-10T22:01:44.435Z,15.90
2022-10-10T22:04:13.249Z,15.90
2022-10-10T22:06:42.171Z,15.90
2022-10-10T22:09:11.353Z,15.90
2022-10-10T22:11:40.139Z,15.90
2022-10-10T22:14:09.350Z,15.90
2022-10-10T22:16:39.803Z,15.90
2022-10-10T22:19:09.376Z,15.90
2022-10-10T22:21:38.351Z,15.90
2022-10-10T22:24:08.992Z,15.80
2022-10-10T22:26:38.412Z,15.80
2022-10-10T22:29:07.263Z,15.80
2022-10-10T22:31:37.609Z,15.80
2022-10-10T22:34:08.263Z,15.80
2022-10-10T22:36:37.158Z,15.80
2022-10-10T22:39:07.209Z,15.80
2022-10-10T22:41:36.283Z,15.80
2022-10-10T22:44:05.367Z,15.80
2022-10-10T22:46:34.418Z,15.80
2022-10-10T22:49:03.199Z,15.80
2022-10-10T22:51:33.577Z,15.90
2022-10-10T22:54:02.307Z,15.90
2022-10-10T22:56:31.014Z,15.90
2022-10-10T22:58:59.819Z,15.90
2022-10-10T23:01:28.726Z,15.90
2022-10-10T23:04:00.581Z,15.90
2022-10-10T23:06:30.201Z,15.90
2022-10-10T23:09:00.579Z,15.90
2022-10-10T23:11:29.826Z,15.90
2022-10-10T23:13:58.935Z,15.90
2022-10-10T23:16:28.151Z,15.90
2022-10-10T23:18:57.177Z,15.80
2022-10-10T23:21:26.177Z,15.90
2022-10-10T23:23:55.926Z,15.80
2022-10-10T23:26:37.552Z,15.80
2022-10-10T23:29:18.679Z,15.80
2022-10-10T23:32:00.326Z,15.80
2022-10-10T23:34:43.256Z,15.80
2022-10-10T23:37:25.588Z,15.80
2022-10-10T23:40:07.057Z,15.80
2022-10-10T23:42:47.565Z,15.80
2022-10-10T23:45:28.783Z,15.80
2022-10-10T23:48:10.253Z,15.80
2022-10-10T23:50:52.050Z,15.80
2022-10-10T23:53:33.304Z,15.90
2022-10-10T23:56:14.629Z,15.90
2022-10-10T23:58:55.674Z,15.90
